Greycliff, Montana
Current Conditions -  °F | °C
As of 11:53 AM on Thursday 18 Dec 2014 (Local Time) from KLVM Reporting Station
Clear Clear  
Wind Chill: 30°   Ceiling: Unl
Heat Index: 40°   Visibility: 10mi
Dew Point: 19°   Wind: 21mph
Humidity: 43%   Direction: 230°SW
Pressure: 29.97"   Gusts: 30mph
Location:  45.76°N, 109.79°W
Report Text: KLVM 181853Z AUTO 23018G26KT 10SM CLR 04/M07 A2997 RMK AO2 PK WND 21033/1805 SLP177 T00441072
Loading
Personal Weather Stations






























Interactive Weather Map New forecast layout! Learn more

10-Day Weather Forecast

Advertisements
Track Severe Weather on mobile